Terminal Aerodrome Forecast
Issued by NWS

Home | Current Version | Previous Version | Text Only | Print | Product List | Glossary On
Versions: 1 2 3 4 5 6 7 8 9 10 11 12 13 14 15
000
FTUS43 KAPX 311359 AAA
TAFAPN
TAF AMD
KAPN 311359Z 3114/0112 01020G30KT 3SM -SHSN OVC015
      TEMPO 3114/3118 3/4SM -SHSN OVC008
     FM312100 36017G25KT P6SM -SHSN OVC035
     FM010300 36012G20KT P6SM BKN035
     FM010700 36011G20KT P6SM SCT035=

USA.gov is the U.S. government's official web portal to all federal, state and local government web resources and services.